createdAt,value
2018-08-16T00:01:01.596Z,98388.84
2018-08-16T00:03:31.086Z,98391.42
2018-08-16T00:06:00.482Z,98383.23
2018-08-16T00:08:29.906Z,98387.19
2018-08-16T00:10:59.303Z,98387.55
2018-08-16T00:13:28.789Z,98386.02
2018-08-16T00:15:58.185Z,98388.70
2018-08-16T00:18:27.621Z,98385.45
2018-08-16T00:20:57.026Z,98384.64
2018-08-16T00:23:26.541Z,98387.25
2018-08-16T00:25:55.960Z,98384.77
2018-08-16T00:28:25.428Z,98378.81
2018-08-16T00:30:54.845Z,98379.66
2018-08-16T00:33:24.321Z,98371.48
2018-08-16T00:35:53.734Z,98379.22
2018-08-16T00:38:23.137Z,98373.31
2018-08-16T00:40:52.528Z,98378.92
2018-08-16T00:43:21.972Z,98375.22
2018-08-16T00:45:51.363Z,98371.08
2018-08-16T00:48:20.864Z,98377.91
2018-08-16T00:50:50.253Z,98372.92
2018-08-16T00:53:19.766Z,98370.42
2018-08-16T00:55:49.161Z,98368.32
2018-08-16T00:58:18.669Z,98367.94
2018-08-16T01:00:48.050Z,98363.72
2018-08-16T01:03:17.469Z,98364.56
2018-08-16T01:05:46.866Z,98368.96
2018-08-16T01:08:16.393Z,98361.47
2018-08-16T01:10:45.717Z,98361.09
2018-08-16T01:13:15.113Z,98357.33
2018-08-16T01:15:44.420Z,98352.21
2018-08-16T01:18:13.763Z,98351.00
2018-08-16T01:20:43.103Z,98348.94
2018-08-16T01:23:12.553Z,98356.59
2018-08-16T01:25:41.874Z,98351.55
2018-08-16T01:28:11.237Z,98348.22
2018-08-16T01:30:40.573Z,98352.60
2018-08-16T01:33:10.460Z,98351.77
2018-08-16T01:35:39.937Z,98346.73
2018-08-16T01:38:09.245Z,98353.05
2018-08-16T01:40:38.603Z,98352.33
2018-08-16T01:43:07.923Z,98350.44
2018-08-16T01:45:37.272Z,98343.56
2018-08-16T01:48:06.644Z,98343.85
2018-08-16T01:50:35.965Z,98342.52
2018-08-16T01:53:05.357Z,98343.45
2018-08-16T01:55:34.710Z,98346.83
2018-08-16T01:58:04.165Z,98338.73
2018-08-16T02:00:33.512Z,98343.91
2018-08-16T02:03:02.842Z,98344.88
2018-08-16T02:05:32.165Z,98344.11
2018-08-16T02:08:01.549Z,98346.28
2018-08-16T02:10:30.885Z,98345.07
2018-08-16T02:13:00.248Z,98346.45
2018-08-16T02:15:29.581Z,98346.50
2018-08-16T02:17:58.965Z,98349.52
2018-08-16T02:20:28.306Z,98349.13
2018-08-16T02:22:57.645Z,98348.39
2018-08-16T02:25:27.014Z,98350.50
2018-08-16T02:27:56.385Z,98345.46
2018-08-16T02:30:25.749Z,98349.33
2018-08-16T02:32:55.195Z,98343.84
2018-08-16T02:35:24.551Z,98343.09
2018-08-16T02:37:53.997Z,98349.55
2018-08-16T02:40:23.356Z,98347.45
2018-08-16T02:42:52.809Z,98343.41
2018-08-16T02:45:22.177Z,98343.00
2018-08-16T02:47:51.668Z,98337.98
2018-08-16T02:50:21.036Z,98339.70
2018-08-16T02:52:50.437Z,98336.19
2018-08-16T02:55:19.799Z,98340.73
2018-08-16T02:57:49.216Z,98338.17
2018-08-16T03:00:18.577Z,98335.28
2018-08-16T03:02:48.043Z,98335.23
2018-08-16T03:05:17.402Z,98334.48
2018-08-16T03:07:46.753Z,98331.94
2018-08-16T03:10:16.109Z,98329.88
2018-08-16T03:12:45.456Z,98328.68
2018-08-16T03:15:14.796Z,98321.12
2018-08-16T03:17:44.217Z,98320.20
2018-08-16T03:20:13.576Z,98318.53
2018-08-16T03:22:43.048Z,98316.91
2018-08-16T03:25:12.425Z,98315.19
2018-08-16T03:27:41.861Z,98308.43
2018-08-16T03:30:11.212Z,98310.22
2018-08-16T03:32:40.656Z,98312.33
2018-08-16T03:35:10.014Z,98308.39
2018-08-16T03:37:39.444Z,98306.28
2018-08-16T03:40:08.838Z,98301.67
2018-08-16T03:42:38.262Z,98304.22
2018-08-16T03:45:08.430Z,98302.10
2018-08-16T03:47:37.909Z,98301.62
2018-08-16T03:50:08.256Z,98303.45
2018-08-16T03:52:38.061Z,98298.80
2018-08-16T03:55:07.685Z,98297.61
2018-08-16T03:57:37.203Z,98293.31
2018-08-16T04:00:07.733Z,98297.12
2018-08-16T04:02:37.302Z,98298.41
2018-08-16T04:05:07.233Z,98302.70
2018-08-16T04:07:36.720Z,98295.42
2018-08-16T04:10:06.527Z,98301.31
2018-08-16T04:12:35.899Z,98300.47
2018-08-16T04:15:05.433Z,98300.11
2018-08-16T04:17:36.199Z,98301.50
2018-08-16T04:20:07.257Z,98297.29
2018-08-16T04:22:36.820Z,98303.22
2018-08-16T04:25:06.541Z,98312.23
2018-08-16T04:27:35.996Z,98305.33
2018-08-16T04:30:06.637Z,98307.88
2018-08-16T04:32:36.056Z,98303.17
2018-08-16T04:35:05.788Z,98302.73
2018-08-16T04:37:35.129Z,98308.63
2018-08-16T04:40:04.975Z,98307.87
2018-08-16T04:42:34.341Z,98303.14
2018-08-16T04:45:03.718Z,98304.84
2018-08-16T04:47:33.157Z,98305.61
2018-08-16T04:50:02.487Z,98309.06
2018-08-16T04:52:31.856Z,98305.68
2018-08-16T04:55:01.195Z,98299.28
2018-08-16T04:57:30.536Z,98302.02
2018-08-16T04:59:59.871Z,98306.76
2018-08-16T05:02:29.253Z,98304.37
2018-08-16T05:04:58.594Z,98313.60
2018-08-16T05:07:27.952Z,98311.05
2018-08-16T05:09:57.315Z,98316.58
2018-08-16T05:12:26.750Z,98314.44
2018-08-16T05:14:56.117Z,98313.59
2018-08-16T05:17:25.578Z,98310.53
2018-08-16T05:19:54.906Z,98309.18
2018-08-16T05:22:24.261Z,98309.10
2018-08-16T05:24:53.596Z,98312.56
2018-08-16T05:27:22.964Z,98305.63
2018-08-16T05:29:52.285Z,98315.63
2018-08-16T05:32:21.713Z,98307.55
2018-08-16T05:34:51.244Z,98314.32
2018-08-16T05:37:20.857Z,98312.50
2018-08-16T05:39:50.189Z,98317.03
2018-08-16T05:42:19.601Z,98313.20
2018-08-16T05:44:48.922Z,98316.98
2018-08-16T05:47:18.288Z,98310.90
2018-08-16T05:49:47.654Z,98312.06
2018-08-16T05:52:17.121Z,98313.63
2018-08-16T05:54:46.464Z,98308.40
2018-08-16T05:57:15.912Z,98310.34
2018-08-16T05:59:45.265Z,98300.30
2018-08-16T06:02:14.636Z,98305.62
2018-08-16T06:04:43.977Z,98301.61
2018-08-16T06:07:14.009Z,98298.56
2018-08-16T06:09:43.510Z,98302.45
2018-08-16T06:12:13.103Z,98304.34
2018-08-16T06:14:42.531Z,98300.66
2018-08-16T06:17:11.993Z,98298.27
2018-08-16T06:19:42.937Z,98302.03
2018-08-16T06:22:12.554Z,98303.84
2018-08-16T06:24:41.954Z,98302.67
2018-08-16T06:27:11.465Z,98295.05
2018-08-16T06:29:41.035Z,98294.14
2018-08-16T06:32:10.506Z,98287.62
2018-08-16T06:34:39.894Z,98287.19
2018-08-16T06:37:09.364Z,98286.66
2018-08-16T06:39:38.746Z,98293.58
2018-08-16T06:42:08.272Z,98289.75
2018-08-16T06:44:37.681Z,98292.06
2018-08-16T06:47:07.159Z,98288.89
2018-08-16T06:49:36.498Z,98292.19
2018-08-16T06:52:05.953Z,98282.43
2018-08-16T06:54:35.309Z,98287.74
2018-08-16T06:57:04.759Z,98288.44
2018-08-16T06:59:34.576Z,98280.76
2018-08-16T07:02:04.454Z,98281.61
2018-08-16T07:04:34.040Z,98277.95
2018-08-16T07:07:03.427Z,98278.93
2018-08-16T07:09:32.898Z,98280.36
2018-08-16T07:12:02.368Z,98271.76
2018-08-16T07:14:31.669Z,98272.56
2018-08-16T07:17:01.045Z,98271.02
2018-08-16T07:19:30.494Z,98274.20
2018-08-16T07:21:59.857Z,98268.46
2018-08-16T07:24:29.406Z,98270.19
2018-08-16T07:26:58.778Z,98266.56
2018-08-16T07:29:28.165Z,98269.77
2018-08-16T07:31:57.590Z,98264.67
2018-08-16T07:34:27.021Z,98260.89
2018-08-16T07:36:56.685Z,98255.98
2018-08-16T07:39:26.128Z,98260.66
2018-08-16T07:41:55.480Z,98259.10
2018-08-16T07:44:24.934Z,98249.80
2018-08-16T07:46:54.316Z,98252.34
2018-08-16T07:49:23.890Z,98247.08
2018-08-16T07:51:53.313Z,98247.05
2018-08-16T07:54:22.665Z,98247.11
2018-08-16T07:56:52.095Z,98241.63
2018-08-16T07:59:21.449Z,98245.04
2018-08-16T08:01:51.711Z,98242.90
2018-08-16T08:04:21.183Z,98246.27
2018-08-16T08:06:50.605Z,98245.44
2018-08-16T08:09:20.145Z,98245.05
2018-08-16T08:11:49.358Z,98243.61
2018-08-16T08:14:18.829Z,98243.69
2018-08-16T08:16:48.180Z,98242.72
2018-08-16T08:19:17.598Z,98246.80
2018-08-16T08:21:46.959Z,98237.52
2018-08-16T08:24:16.418Z,98238.99
2018-08-16T08:26:45.761Z,98238.91
2018-08-16T08:29:15.313Z,98235.89
2018-08-16T08:31:44.695Z,98231.34
2018-08-16T08:34:14.117Z,98229.42
2018-08-16T08:37:00.511Z,98226.56
2018-08-16T08:39:29.895Z,98229.77
2018-08-16T08:41:59.308Z,98221.61
2018-08-16T08:44:29.181Z,98218.72
2018-08-16T08:46:58.530Z,98212.42
2018-08-16T08:49:27.885Z,98208.99
2018-08-16T08:51:57.311Z,98211.13
2018-08-16T08:54:47.791Z,98209.53
2018-08-16T08:57:35.084Z,98211.73
2018-08-16T09:00:05.473Z,98204.94
2018-08-16T09:02:34.833Z,98205.89
2018-08-16T09:05:05.432Z,98202.12
2018-08-16T09:07:34.776Z,98194.87
2018-08-16T09:11:19.937Z,98201.34
2018-08-16T09:14:08.296Z,98195.50
2018-08-16T09:16:38.711Z,98191.73
2018-08-16T09:19:08.921Z,98186.55
2018-08-16T09:21:38.437Z,98184.59
2018-08-16T09:24:08.043Z,98185.64
2018-08-16T09:26:39.189Z,98188.06
2018-08-16T09:30:26.508Z,98188.22
2018-08-16T09:33:13.095Z,98177.80
2018-08-16T09:35:42.419Z,98173.98
2018-08-16T09:38:11.875Z,98166.86
2018-08-16T09:40:41.183Z,98165.20
2018-08-16T09:43:10.544Z,98167.23
2018-08-16T09:48:00.391Z,98158.26
2018-08-16T09:50:29.718Z,98157.14
2018-08-16T09:52:59.174Z,98158.53
2018-08-16T09:55:28.489Z,98145.59
2018-08-16T09:57:57.869Z,98141.03
2018-08-16T10:00:32.440Z,98145.95
2018-08-16T10:03:01.781Z,98146.94
2018-08-16T10:05:31.207Z,98141.31
2018-08-16T10:08:00.533Z,98142.84
2018-08-16T10:10:29.887Z,98121.69
2018-08-16T10:12:59.205Z,98119.94
2018-08-16T10:15:28.529Z,98116.02
2018-08-16T10:17:57.877Z,98124.24
2018-08-16T10:20:27.276Z,98115.49
2018-08-16T10:22:56.608Z,98113.44
2018-08-16T10:25:25.997Z,98113.81
2018-08-16T10:27:55.352Z,98110.18
2018-08-16T10:30:24.810Z,98107.06
2018-08-16T10:32:54.133Z,98101.39
2018-08-16T10:35:23.498Z,98096.85
2018-08-16T10:37:52.796Z,98107.80
2018-08-16T10:40:22.206Z,98097.25
2018-08-16T10:42:51.532Z,98092.50
2018-08-16T10:45:20.901Z,98091.55
2018-08-16T10:47:50.225Z,98092.78
2018-08-16T10:50:19.604Z,98078.02
2018-08-16T10:52:48.929Z,98080.80
2018-08-16T10:55:18.320Z,98075.77
2018-08-16T10:57:47.665Z,98075.06
2018-08-16T11:00:17.049Z,98075.94
2018-08-16T11:02:46.370Z,98079.94
2018-08-16T11:05:15.704Z,98074.97
2018-08-16T11:07:45.064Z,98082.26
2018-08-16T11:10:14.421Z,98074.83
2018-08-16T11:12:43.746Z,98072.82
2018-08-16T11:15:13.121Z,98069.54
2018-08-16T11:17:42.452Z,98064.63
2018-08-16T11:20:11.589Z,98066.91
2018-08-16T11:22:40.963Z,98067.03
2018-08-16T11:25:10.309Z,98055.78
2018-08-16T11:27:39.641Z,98045.24
2018-08-16T11:30:09.036Z,98045.16
2018-08-16T11:32:38.357Z,98040.90
2018-08-16T11:35:07.815Z,98044.09
2018-08-16T11:37:37.075Z,98036.25
2018-08-16T11:40:07.033Z,98033.45
2018-08-16T11:42:36.370Z,98026.95
2018-08-16T11:45:06.765Z,98031.55
2018-08-16T11:47:36.121Z,98032.41
2018-08-16T11:50:06.052Z,98025.66
2018-08-16T11:52:35.388Z,98019.77
2018-08-16T11:55:05.018Z,98017.45
2018-08-16T11:57:34.403Z,98026.13
2018-08-16T12:00:03.857Z,98009.84
2018-08-16T12:02:33.565Z,98015.27
2018-08-16T12:05:03.063Z,98018.84
2018-08-16T12:07:32.453Z,98011.80
2018-08-16T12:10:01.858Z,98001.56
2018-08-16T12:12:31.222Z,98000.84
2018-08-16T12:15:00.720Z,98000.36
2018-08-16T12:17:30.051Z,97999.19
2018-08-16T12:19:59.404Z,97994.67
2018-08-16T12:22:29.030Z,97992.22
2018-08-16T12:24:58.389Z,97985.31
2018-08-16T12:27:27.758Z,97982.52
2018-08-16T12:29:57.109Z,97980.52
2018-08-16T12:32:26.481Z,97982.47
2018-08-16T12:34:55.921Z,97981.16
2018-08-16T12:37:25.260Z,97980.73
2018-08-16T12:39:54.627Z,97969.37
2018-08-16T12:42:24.059Z,97970.91
2018-08-16T12:44:53.720Z,97972.52
2018-08-16T12:47:23.191Z,97959.19
2018-08-16T12:49:52.509Z,97961.37
2018-08-16T12:52:21.857Z,97962.66
2018-08-16T12:54:51.766Z,97952.82
2018-08-16T12:57:21.130Z,97950.91
2018-08-16T12:59:50.550Z,97951.22
2018-08-16T13:02:19.883Z,97945.17
2018-08-16T13:04:49.321Z,97937.66
2018-08-16T13:07:18.755Z,97941.91
2018-08-16T13:09:48.098Z,97932.02
2018-08-16T13:12:17.448Z,97932.11
2018-08-16T13:14:46.816Z,97939.09
2018-08-16T13:17:16.140Z,97932.34
2018-08-16T13:19:45.548Z,97932.92
2018-08-16T13:22:14.881Z,97931.72
2018-08-16T13:24:44.314Z,97934.20
2018-08-16T13:27:13.803Z,97926.86
2018-08-16T13:29:43.148Z,97924.92
2018-08-16T13:32:12.485Z,97915.30
2018-08-16T13:34:41.933Z,97914.84
2018-08-16T13:37:11.874Z,97910.25
2018-08-16T13:39:41.145Z,97908.32
2018-08-16T13:42:10.553Z,97903.05
2018-08-16T13:44:39.816Z,97903.48
2018-08-16T13:47:09.190Z,97902.19
2018-08-16T13:49:38.586Z,97896.47
2018-08-16T13:52:08.937Z,97896.78
2018-08-16T13:54:38.549Z,97891.81
2018-08-16T13:57:07.904Z,97889.48
2018-08-16T13:59:37.288Z,97886.39
2018-08-16T14:02:06.860Z,97875.69
2018-08-16T14:04:36.316Z,97874.84
2018-08-16T14:07:05.711Z,97880.66
2018-08-16T14:09:35.081Z,97874.23
2018-08-16T14:12:04.512Z,97874.08
2018-08-16T14:14:33.974Z,97876.95
2018-08-16T14:17:03.440Z,97877.89
2018-08-16T14:19:32.801Z,97870.20
2018-08-16T14:22:02.266Z,97871.14
2018-08-16T14:24:31.619Z,97872.37
2018-08-16T14:27:01.046Z,97861.92
2018-08-16T14:29:30.437Z,97858.75
2018-08-16T14:31:59.924Z,97856.30
2018-08-16T14:34:29.250Z,97856.06
2018-08-16T14:36:58.677Z,97857.70
2018-08-16T14:39:28.035Z,97851.59
2018-08-16T14:41:57.480Z,97852.29
2018-08-16T14:44:26.833Z,97847.47
2018-08-16T14:46:56.275Z,97845.87
2018-08-16T14:49:25.599Z,97846.09
2018-08-16T14:51:54.960Z,97839.50
2018-08-16T14:54:24.289Z,97835.84
2018-08-16T14:56:53.679Z,97834.58
2018-08-16T14:59:23.077Z,97840.35
2018-08-16T15:01:52.441Z,97836.55
2018-08-16T15:04:21.782Z,97834.64
2018-08-16T15:06:51.144Z,97838.83
2018-08-16T15:09:20.538Z,97833.77
2018-08-16T15:11:49.982Z,97829.45
2018-08-16T15:14:19.327Z,97830.02
2018-08-16T15:16:48.764Z,97833.39
2018-08-16T15:19:18.088Z,97825.09
2018-08-16T15:21:47.516Z,97819.06
2018-08-16T15:24:20.028Z,97825.84
2018-08-16T15:26:50.029Z,97821.09
2018-08-16T15:29:20.255Z,97823.39
2018-08-16T15:31:49.698Z,97816.27
2018-08-16T15:34:19.042Z,97819.80
2018-08-16T15:36:48.372Z,97816.88
2018-08-16T15:39:17.743Z,97817.95
2018-08-16T15:41:47.095Z,97811.55
2018-08-16T15:44:16.434Z,97814.21
2018-08-16T15:46:45.813Z,97814.52
2018-08-16T15:49:15.176Z,97814.36
2018-08-16T15:51:44.642Z,97807.95
2018-08-16T15:54:13.987Z,97808.05
2018-08-16T15:56:43.451Z,97803.39
2018-08-16T15:59:12.822Z,97800.31
2018-08-16T16:01:42.256Z,97796.03
2018-08-16T16:04:11.617Z,97800.34
2018-08-16T16:06:41.100Z,97795.58
2018-08-16T16:09:10.997Z,97790.98
2018-08-16T16:11:40.486Z,97793.94
2018-08-16T16:14:09.879Z,97791.44
2018-08-16T16:16:39.268Z,97782.46
2018-08-16T16:19:08.661Z,97781.92
2018-08-16T16:21:38.108Z,97786.89
2018-08-16T16:24:07.495Z,97780.95
2018-08-16T16:26:36.900Z,97785.73
2018-08-16T16:29:06.313Z,97771.48
2018-08-16T16:31:35.701Z,97770.73
2018-08-16T16:34:05.064Z,97767.19
2018-08-16T16:36:34.480Z,97760.16
2018-08-16T16:39:04.054Z,97758.30
2018-08-16T16:41:33.524Z,97758.98
2018-08-16T16:44:02.872Z,97760.36
2018-08-16T16:46:32.314Z,97759.75
2018-08-16T16:49:01.698Z,97760.96
2018-08-16T16:51:31.108Z,97756.67
2018-08-16T16:54:00.457Z,97757.43
2018-08-16T16:56:29.918Z,97759.38
2018-08-16T16:58:59.298Z,97757.11
2018-08-16T17:01:28.701Z,97757.30
2018-08-16T17:03:58.162Z,97752.36
2018-08-16T17:06:27.515Z,97752.27
2018-08-16T17:08:56.859Z,97754.24
2018-08-16T17:11:26.224Z,97750.66
2018-08-16T17:13:55.576Z,97761.33
2018-08-16T17:16:25.022Z,97755.67
2018-08-16T17:18:54.604Z,97757.33
2018-08-16T17:21:24.021Z,97757.27
2018-08-16T17:23:53.368Z,97760.13
2018-08-16T17:26:22.811Z,97756.86
2018-08-16T17:28:52.076Z,97755.52
2018-08-16T17:31:21.441Z,97754.81
2018-08-16T17:33:50.805Z,97749.64
2018-08-16T17:36:20.402Z,97748.19
2018-08-16T17:38:49.730Z,97755.30
2018-08-16T17:41:19.139Z,97751.92
2018-08-16T17:43:48.465Z,97755.20
2018-08-16T17:46:17.841Z,97755.63
2018-08-16T17:48:47.185Z,97760.27
2018-08-16T17:51:16.539Z,97756.08
2018-08-16T17:53:45.967Z,97753.05
2018-08-16T17:56:15.310Z,97753.13
2018-08-16T17:58:44.671Z,97751.31
2018-08-16T18:01:14.005Z,97752.86
2018-08-16T18:03:43.883Z,97752.68
2018-08-16T18:06:13.234Z,97752.72
2018-08-16T18:08:43.067Z,97754.01
2018-08-16T18:11:12.758Z,97760.91
2018-08-16T18:13:42.381Z,97761.02
2018-08-16T18:16:11.719Z,97757.59
2018-08-16T18:18:41.107Z,97760.02
2018-08-16T18:21:10.430Z,97758.70
2018-08-16T18:23:39.821Z,97759.66
2018-08-16T18:26:09.181Z,97755.61
2018-08-16T18:28:38.632Z,97755.73
2018-08-16T18:31:08.028Z,97764.20
2018-08-16T18:33:37.361Z,97762.40
2018-08-16T18:36:07.096Z,97765.17
2018-08-16T18:38:36.576Z,97763.45
2018-08-16T18:41:06.063Z,97764.12
2018-08-16T18:43:35.414Z,97769.17
2018-08-16T18:46:04.797Z,97768.98
2018-08-16T18:48:34.123Z,97776.94
2018-08-16T18:51:03.591Z,97769.32
2018-08-16T18:53:32.929Z,97771.88
2018-08-16T18:56:02.390Z,97773.56
2018-08-16T18:58:31.724Z,97779.40
2018-08-16T19:01:01.160Z,97780.17
2018-08-16T19:03:30.495Z,97778.27
2018-08-16T19:05:59.873Z,97779.30
2018-08-16T19:08:29.228Z,97786.39
2018-08-16T19:10:58.688Z,97784.22
2018-08-16T19:13:28.033Z,97782.41
2018-08-16T19:15:57.486Z,97784.00
2018-08-16T19:18:26.817Z,97786.27
2018-08-16T19:20:56.197Z,97783.70
2018-08-16T19:23:25.571Z,97793.48
2018-08-16T19:25:54.896Z,97794.09
2018-08-16T19:28:24.249Z,97798.11
2018-08-16T19:30:53.701Z,97797.84
2018-08-16T19:33:23.065Z,97791.79
2018-08-16T19:35:52.562Z,97792.14
2018-08-16T19:38:21.796Z,97789.67
2018-08-16T19:40:51.145Z,97791.07
2018-08-16T19:43:20.614Z,97790.63
2018-08-16T19:45:49.976Z,97793.22
2018-08-16T19:48:19.418Z,97797.11
2018-08-16T19:50:48.702Z,97793.94
2018-08-16T19:53:18.114Z,97797.36
2018-08-16T19:55:47.461Z,97798.66
2018-08-16T19:58:16.950Z,97794.94
2018-08-16T20:00:46.292Z,97801.05
2018-08-16T20:03:15.761Z,97795.52
2018-08-16T20:05:45.137Z,97799.55
2018-08-16T20:08:14.521Z,97802.33
2018-08-16T20:10:43.994Z,97801.13
2018-08-16T20:13:13.423Z,97792.43
2018-08-16T20:15:42.736Z,97793.82
2018-08-16T20:18:12.141Z,97797.36
2018-08-16T20:20:41.442Z,97792.17
2018-08-16T20:23:10.805Z,97790.70
2018-08-16T20:25:40.226Z,97792.36
2018-08-16T20:28:09.709Z,97790.86
2018-08-16T20:30:40.233Z,97782.19
2018-08-16T20:33:09.981Z,97791.14
2018-08-16T20:35:39.333Z,97790.41
2018-08-16T20:38:08.741Z,97784.59
2018-08-16T20:40:38.397Z,97791.77
2018-08-16T20:43:07.769Z,97790.95
2018-08-16T20:45:37.228Z,97790.70
2018-08-16T20:48:06.611Z,97797.52
2018-08-16T20:50:36.024Z,97798.80
2018-08-16T20:53:05.540Z,97797.69
2018-08-16T20:55:35.152Z,97796.40
2018-08-16T20:58:04.485Z,97796.41
2018-08-16T21:00:34.011Z,97801.55
2018-08-16T21:03:03.445Z,97801.55
2018-08-16T21:05:32.883Z,97799.98
2018-08-16T21:08:02.342Z,97799.80
2018-08-16T21:10:31.841Z,97799.16
2018-08-16T21:17:49.969Z,97791.71
2018-08-16T21:20:19.329Z,97794.84
2018-08-16T21:22:48.809Z,97797.96
2018-08-16T21:25:18.165Z,97800.19
2018-08-16T21:27:47.573Z,97798.35
2018-08-16T21:30:16.915Z,97800.61
2018-08-16T21:32:46.320Z,97801.69
2018-08-16T21:35:15.668Z,97802.05
2018-08-16T21:37:45.048Z,97804.81
2018-08-16T21:40:14.409Z,97808.77
2018-08-16T21:42:43.820Z,97802.73
2018-08-16T21:45:13.164Z,97806.20
2018-08-16T21:47:42.527Z,97801.75
2018-08-16T21:50:11.876Z,97801.56
2018-08-16T21:52:41.361Z,97812.52
2018-08-16T21:55:10.704Z,97814.97
2018-08-16T21:57:40.168Z,97808.81
2018-08-16T22:00:10.356Z,97806.89
2018-08-16T22:02:39.671Z,97811.30
2018-08-16T22:05:09.052Z,97815.63
2018-08-16T22:08:14.280Z,97818.55
2018-08-16T22:10:44.380Z,97823.39
2018-08-16T22:13:13.703Z,97818.63
2018-08-16T22:15:43.140Z,97823.78
2018-08-16T22:18:12.469Z,97823.42
2018-08-16T22:20:41.860Z,97826.14
2018-08-16T22:23:11.236Z,97825.02
2018-08-16T22:25:40.658Z,97827.69
2018-08-16T22:28:10.018Z,97833.16
2018-08-16T22:30:39.472Z,97830.91
2018-08-16T22:33:08.828Z,97832.72
2018-08-16T22:35:38.268Z,97829.17
2018-08-16T22:38:07.642Z,97829.00
2018-08-16T22:40:37.066Z,97832.26
2018-08-16T22:43:06.714Z,97834.01
2018-08-16T22:45:36.191Z,97833.61
2018-08-16T22:48:05.829Z,97830.45
2018-08-16T22:50:35.311Z,97832.73
2018-08-16T22:53:04.765Z,97832.65
2018-08-16T22:55:34.552Z,97822.96
2018-08-16T22:58:03.904Z,97828.80
2018-08-16T23:00:33.337Z,97824.93
2018-08-16T23:03:02.692Z,97820.30
2018-08-16T23:05:32.145Z,97825.14
2018-08-16T23:08:01.516Z,97826.68
2018-08-16T23:10:30.947Z,97830.52
2018-08-16T23:13:00.313Z,97830.03
2018-08-16T23:15:29.729Z,97831.52
2018-08-16T23:17:59.093Z,97839.96
2018-08-16T23:20:28.556Z,97835.83
2018-08-16T23:22:57.923Z,97828.52
2018-08-16T23:25:27.345Z,97830.08
2018-08-16T23:27:56.711Z,97833.26
2018-08-16T23:30:26.146Z,97826.25
2018-08-16T23:32:55.498Z,97830.29
2018-08-16T23:35:24.872Z,97829.98
2018-08-16T23:37:54.216Z,97824.62
2018-08-16T23:40:23.677Z,97825.45
2018-08-16T23:42:53.908Z,97823.54
2018-08-16T23:45:23.260Z,97828.16
2018-08-16T23:48:37.047Z,97831.56
2018-08-16T23:51:06.504Z,97827.71
2018-08-16T23:53:35.865Z,97826.68
2018-08-16T23:56:05.521Z,97827.73
2018-08-16T23:58:34.855Z,97822.28
